EDT,Max TemperatureF,Mean TemperatureF,Min TemperatureF,Max Dew PointF,MeanDew PointF,Min DewpointF,Max Humidity, Mean Humidity, Min Humidity, Max Sea Level PressureIn, Mean Sea Level PressureIn, Min Sea Level PressureIn, Max VisibilityMiles, Mean VisibilityMiles, Min VisibilityMiles, Max Wind SpeedMPH, Mean Wind SpeedMPH, Max Gust SpeedMPH,PrecipitationIn, CloudCover, Events, WindDirDegrees
2012-9-1,81,73,66,70,63,57,94,71,51,30.13,30.09,30.04,10,9,2,10,5,,0.10,4,Rain,108
2012-9-2,81,73,66,70,66,61,90,79,70,30.06,30.01,29.95,10,10,10,14,8,20,0.00,6,,96
2012-9-3,88,76,66,70,67,62,90,74,53,29.97,29.94,29.89,10,10,10,9,6,,0.00,1,,94
2012-9-4,84,75,68,72,67,64,100,85,53,29.92,29.89,29.86,10,5,0,14,2,17,0.00,5,Fog,12
2012-9-5,80,72,64,70,66,63,100,88,64,29.92,29.88,29.80,10,5,0,15,3,22,0.04,4,Fog-Rain,214
2012-9-6,86,74,63,68,63,57,100,79,40,29.93,29.90,29.84,10,6,0,9,2,,0.01,3,Fog,295
2012-9-7,82,68,55,67,59,49,97,72,37,29.94,29.83,29.73,10,9,6,16,4,24,0.08,3,Rain,246
2012-9-8,71,62,54,59,53,47,97,78,45,29.89,29.76,29.69,10,8,2,15,10,22,0.60,5,Rain,337
2012-9-9,71,60,50,52,49,46,93,68,42,30.12,30.00,29.88,10,10,10,9,3,,0.00,4,,6
2012-9-10,73,60,48,49,44,39,90,62,29,30.26,30.20,30.13,10,10,10,6,1,,0.00,0,,22
2012-9-11,79,62,46,52,49,44,93,66,35,30.26,30.21,30.17,10,10,10,20,4,26,0.00,0,,223
2012-9-12,82,66,50,57,52,47,94,65,35,30.27,30.22,30.18,10,9,2,15,4,23,0.00,0,,231
2012-9-13,84,70,59,59,55,49,87,62,31,30.28,30.23,30.19,10,9,7,16,4,24,0.00,6,,257
2012-9-14,72,62,52,59,52,42,100,77,35,30.32,30.27,30.23,10,8,4,16,9,25,0.43,5,Rain,355
2012-9-15,73,60,48,49,44,40,83,60,30,30.36,30.28,30.19,10,10,10,8,4,,0.00,0,,6
2012-9-16,77,60,46,50,47,44,90,63,36,30.19,30.12,30.05,10,10,10,12,3,,0.00,1,,232
2012-9-17,77,62,48,63,53,46,94,70,42,30.05,29.90,29.74,10,10,9,13,3,,0.00,3,Rain,226
2012-9-18,64,56,44,63,51,35,94,77,51,30.01,29.74,29.63,10,8,2,17,8,24,0.12,6,Rain,317
2012-9-19,66,52,37,42,37,33,93,60,28,30.15,30.08,30.01,10,10,10,15,5,21,0.01,1,,233
2012-9-20,70,60,50,54,45,38,89,63,45,30.01,29.93,29.87,10,9,2,16,11,18,0.14,5,Rain-Thunderstorm,233
2012-9-21,71,58,45,52,44,34,100,70,27,29.96,29.91,29.81,10,10,10,15,4,22,0.11,3,Rain,270
2012-9-22,55,50,46,50,47,43,96,88,71,30.12,29.87,29.76,10,8,2,17,5,26,0.17,6,Rain-Thunderstorm,291
2012-9-23,57,48,41,45,40,37,93,72,51,30.26,30.20,30.15,10,10,9,14,6,20,0.00,5,,302
2012-9-24,64,50,37,39,35,32,93,61,31,30.25,30.14,29.99,10,10,10,18,6,26,0.00,0,,248
2012-9-25,68,56,45,57,48,36,100,74,49,30.00,29.95,29.91,10,9,2,15,7,,0.00,5,,235
2012-9-26,73,64,55,63,58,47,100,88,66,30.15,29.98,29.90,10,4,0,12,3,,0.01,5,Fog,236
2012-9-27,68,58,50,48,45,38,86,67,45,30.23,30.19,30.16,10,10,10,17,8,20,0.00,2,,98
2012-9-28,69,58,48,50,46,42,93,71,40,30.19,30.15,30.10,10,10,10,7,2,,0.00,4,,31
2012-9-29,72,57,43,47,42,36,93,65,30,30.12,30.04,29.95,10,10,6,10,3,,0.00,1,,351
2012-9-30,66,56,46,48,44,40,93,74,38,29.98,29.95,29.92,10,10,6,15,8,18,0.00,2,,43